Time;durP1;ratioP1;P1;durP2;ratioP2;P2;SDS_P1;SDS_P2;PMS_P1;PMS_P2;Temp;Humidity;BMP_temperature;BMP_pressure;BME280_temperature;BME280_humidity;BME280_pressure;Samples;Min_cycle;Max_cycle;Signal;HPM_P1;HPM_P2
2022/12/13 00:01:20;;;;;;;16.70;11.30;;;;;;;-0.81;89.52;98097.17;85786;1283;24328;-72
2022/12/13 00:03:21;;;;;;;19.00;12.50;;;;;;;-0.82;89.26;98101.16;85787;1286;25145;-72
2022/12/13 00:05:23;;;;;;;17.80;12.40;;;;;;;-0.85;89.47;98099.13;85619;1286;99102;-71
2022/12/13 00:07:25;;;;;;;14.00;11.00;;;;;;;-0.87;89.42;98100.89;85782;1296;22523;-71
2022/12/13 00:09:27;;;;;;;21.60;14.90;;;;;;;-0.85;89.29;98103.95;85790;1286;24373;-72
2022/12/13 00:11:29;;;;;;;18.40;13.10;;;;;;;-0.88;89.29;98099.52;85762;1280;99188;-71
2022/12/13 00:13:31;;;;;;;18.90;14.60;;;;;;;-0.86;89.57;98105.54;85672;1289;23528;-72
2022/12/13 00:15:33;;;;;;;16.70;12.90;;;;;;;-0.87;89.48;98106.74;85750;1283;22884;-72
2022/12/13 00:17:34;;;;;;;20.10;13.00;;;;;;;-0.87;89.43;98106.93;85703;1283;98788;-69
2022/12/13 00:19:36;;;;;;;16.50;12.70;;;;;;;-0.90;89.33;98103.70;85653;1283;22535;-72
2022/12/13 00:21:38;;;;;;;13.40;10.20;;;;;;;-0.88;89.54;98106.59;85847;1287;22490;-71
2022/12/13 00:23:40;;;;;;;11.70;10.40;;;;;;;-0.89;89.45;98104.38;85765;1280;99062;-71
2022/12/13 00:25:41;;;;;;;14.60;11.80;;;;;;;-0.89;89.48;98104.03;85754;1297;25350;-71
2022/12/13 00:27:43;;;;;;;14.20;11.80;;;;;;;-0.91;89.41;98102.17;85776;1283;22607;-71
2022/12/13 00:29:45;;;;;;;18.20;12.50;;;;;;;-0.93;89.35;98104.79;85846;1280;99255;-71
2022/12/13 00:31:46;;;;;;;16.30;12.40;;;;;;;-0.93;89.31;98104.45;85878;1288;22601;-72
2022/12/13 00:33:48;;;;;;;12.30;10.90;;;;;;;-0.93;89.34;98112.02;85806;1287;22625;-71
2022/12/13 00:35:50;;;;;;;12.70;10.80;;;;;;;-0.94;89.40;98114.11;85716;1288;100038;-71
2022/12/13 00:37:52;;;;;;;13.20;10.70;;;;;;;-0.94;89.47;98117.73;85822;1281;22612;-70
2022/12/13 00:39:54;;;;;;;17.60;11.70;;;;;;;-0.93;89.45;98126.86;85770;1283;22574;-70
2022/12/13 00:41:56;;;;;;;15.40;12.60;;;;;;;-0.93;89.31;98128.58;85724;1286;98959;-72
2022/12/13 00:43:59;;;;;;;20.30;15.10;;;;;;;-0.94;89.39;98128.60;85622;1290;22704;-70
2022/12/13 00:46:00;;;;;;;22.50;15.70;;;;;;;-0.93;89.40;98131.34;85814;1287;23525;-71
2022/12/13 00:48:03;;;;;;;19.90;14.30;;;;;;;-0.92;89.38;98132.35;85552;1283;99678;-70
2022/12/13 00:50:05;;;;;;;15.40;11.70;;;;;;;-0.93;89.32;98132.72;85786;1289;22602;-71
2022/12/13 00:52:06;;;;;;;15.20;12.10;;;;;;;-0.94;89.33;98138.42;85777;1286;22992;-71
2022/12/13 00:54:09;;;;;;;13.40;11.00;;;;;;;-0.94;89.47;98140.84;85747;1286;97724;-71
2022/12/13 00:56:13;;;;;;;17.70;8.00;;;;;;;-0.94;89.36;98142.23;85819;1286;22981;-70
2022/12/13 00:58:14;;;;;;;16.00;12.50;;;;;;;-0.94;89.41;98141.88;85832;1289;22881;-71
2022/12/13 01:00:16;;;;;;;19.20;12.90;;;;;;;-0.94;89.44;98146.01;85780;1284;99613;-70
2022/12/13 01:02:18;;;;;;;19.50;13.10;;;;;;;-0.97;89.37;98149.33;85826;1289;22743;-69
2022/12/13 01:04:20;;;;;;;14.80;12.20;;;;;;;-1.01;89.31;98142.15;85558;1289;22483;-71
2022/12/13 01:06:35;;;;;;;18.70;13.00;;;;;;;-0.98;89.23;98146.93;85732;1287;98825;-70
2022/12/13 01:08:37;;;;;;;16.20;11.50;;;;;;;-0.98;89.35;98145.73;85871;1286;25366;-70
2022/12/13 01:10:46;;;;;;;12.70;9.40;;;;;;;-0.98;89.47;98146.41;85727;1290;24447;-71
2022/12/13 01:12:48;;;;;;;16.40;10.20;;;;;;;-0.97;89.40;98143.98;85692;1280;100440;-70
2022/12/13 01:14:50;;;;;;;19.60;14.60;;;;;;;-0.96;89.33;98143.11;85865;1280;24318;-71
2022/12/13 01:16:54;;;;;;;15.20;12.10;;;;;;;-0.96;89.39;98144.13;85945;1280;22563;-70
2022/12/13 01:18:57;;;;;;;20.00;14.70;;;;;;;-0.98;89.33;98145.56;85736;1280;99067;-72
2022/12/13 01:21:10;;;;;;;13.00;11.00;;;;;;;-1.00;89.28;98146.44;85954;1280;22533;-71
2022/12/13 01:23:12;;;;;;;13.40;11.80;;;;;;;-1.00;89.22;98144.04;85894;1286;22487;-70
2022/12/13 01:25:13;;;;;;;18.40;13.60;;;;;;;-1.01;89.37;98146.46;85597;1283;98757;-72
2022/12/13 01:27:15;;;;;;;14.10;11.50;;;;;;;-1.00;89.28;98146.63;85782;1290;25447;-71
2022/12/13 01:29:19;;;;;;;18.00;14.50;;;;;;;-1.01;89.25;98148.70;85790;1290;22433;-70
2022/12/13 01:31:20;;;;;;;13.70;11.00;;;;;;;-1.03;89.33;98151.65;85799;1283;24299;-71
2022/12/13 01:33:23;;;;;;;14.80;12.60;;;;;;;-1.03;89.32;98153.04;85836;1284;23508;-71
2022/12/13 01:35:25;;;;;;;14.50;11.30;;;;;;;-1.02;89.27;98152.17;85782;1286;99342;-71
2022/12/13 01:37:26;;;;;;;18.90;15.00;;;;;;;-1.01;89.33;98153.53;85594;1289;22533;-72
2022/12/13 01:39:28;;;;;;;14.80;13.30;;;;;;;-1.00;89.35;98156.10;85645;1285;24208;-71
2022/12/13 01:41:32;;;;;;;20.10;14.80;;;;;;;-1.00;89.35;98153.51;85726;1282;100343;-71
2022/12/13 01:43:36;;;;;;;21.50;16.30;;;;;;;-0.98;89.45;98154.34;85826;1288;22948;-71
2022/12/13 01:45:38;;;;;;;11.80;10.60;;;;;;;-0.98;89.37;98155.04;85827;1287;22532;-70
2022/12/13 01:47:45;;;;;;;20.90;15.20;;;;;;;-0.98;89.42;98156.08;84869;1283;99233;-70
2022/12/13 01:49:47;;;;;;;16.90;13.40;;;;;;;-0.98;89.35;98160.38;85702;1281;25280;-70
2022/12/13 01:51:58;;;;;;;18.40;14.50;;;;;;;-0.98;89.40;98165.73;85612;1283;25247;-70
2022/12/13 01:54:03;;;;;;;20.40;15.80;;;;;;;-0.98;89.34;98167.28;85620;1283;99112;-71
2022/12/13 01:56:11;;;;;;;14.00;12.00;;;;;;;-0.99;89.32;98170.73;85652;1283;22614;-71
2022/12/13 01:58:13;;;;;;;15.20;10.90;;;;;;;-1.02;89.29;98171.30;85791;1288;24342;-71
2022/12/13 02:00:16;;;;;;;15.60;11.80;;;;;;;-1.02;89.37;98172.52;85682;1280;97888;-70
2022/12/13 02:02:18;;;;;;;19.70;14.20;;;;;;;-1.02;89.26;98168.20;85799;1283;26498;-72
2022/12/13 02:04:28;;;;;;;14.80;11.20;;;;;;;-1.15;89.25;98152.34;85816;1286;26279;-71
2022/12/13 02:06:34;;;;;;;13.90;11.40;;;;;;;-1.03;89.25;98174.25;85695;1282;98769;-70
2022/12/13 02:08:39;;;;;;;17.70;11.90;;;;;;;-1.04;89.17;98174.77;85727;1290;25481;-70
2022/12/13 02:10:42;;;;;;;13.60;11.30;;;;;;;-1.06;89.28;98177.55;86011;1283;24310;-71
2022/12/13 02:12:46;;;;;;;16.50;12.60;;;;;;;-1.05;89.29;98179.63;85632;1283;99121;-70
2022/12/13 02:14:48;;;;;;;17.50;12.80;;;;;;;-1.07;89.19;98179.30;85568;1289;215949;-71
2022/12/13 02:17:20;;;;;;;7.40;6.70;;;;;;;-1.08;89.21;98184.66;85771;1289;22675;-71
2022/12/13 02:19:29;;;;;;;13.20;10.70;;;;;;;-1.08;89.37;98187.08;85842;1288;24287;-70
2022/12/13 02:21:59;;;;;;;14.30;10.20;;;;;;;-1.11;89.22;98184.35;85858;1280;24380;-70
2022/12/13 02:24:14;;;;;;;14.10;12.40;;;;;;;-1.12;89.32;98183.16;85760;1287;98829;-71
2022/12/13 02:26:24;;;;;;;12.00;10.80;;;;;;;-1.13;89.07;98186.45;85892;1280;22602;-70
2022/12/13 02:28:38;;;;;;;11.80;10.30;;;;;;;-1.15;89.21;98189.08;85844;1287;22928;-70
2022/12/13 02:30:44;;;;;;;11.60;9.90;;;;;;;-1.21;89.01;98195.52;85820;1280;98829;-70
2022/12/13 02:32:54;;;;;;;13.80;11.90;;;;;;;-1.23;89.01;98191.42;85768;1283;22489;-70
2022/12/13 02:35:09;;;;;;;18.50;13.20;;;;;;;-1.23;89.09;98192.98;85916;1280;22494;-69
2022/12/13 02:37:47;;;;;;;8.80;8.00;;;;;;;-1.21;89.07;98190.70;85679;1285;98906;-71
2022/12/13 02:39:57;;;;;;;12.90;10.50;;;;;;;-1.21;89.15;98193.11;85909;1280;24187;-70
2022/12/13 02:42:12;;;;;;;16.20;10.10;;;;;;;-1.26;89.05;98186.63;85758;1280;99197;-71
2022/12/13 02:44:21;;;;;;;15.60;12.40;;;;;;;-1.21;89.13;98192.93;85786;1283;22659;-70
2022/12/13 02:46:27;;;;;;;15.50;11.90;;;;;;;-1.19;89.10;98196.36;85784;1289;22498;-70
2022/12/13 02:48:33;;;;;;;13.80;12.20;;;;;;;-1.19;89.15;98195.85;85754;1283;99050;-70
2022/12/13 02:50:37;;;;;;;17.90;13.00;;;;;;;-1.21;89.11;98196.04;85692;1290;22489;-71
2022/12/13 02:52:41;;;;;;;12.70;9.20;;;;;;;-1.20;89.15;98194.82;85763;1284;25341;-70
2022/12/13 02:54:43;;;;;;;10.70;9.80;;;;;;;-1.20;89.17;98195.52;85680;1290;98874;-71
2022/12/13 02:57:03;;;;;;;21.60;12.20;;;;;;;-1.21;89.17;98197.58;85833;1288;22686;-69
2022/12/13 02:59:11;;;;;;;14.50;11.30;;;;;;;-1.22;89.12;98196.22;85805;1289;22575;-70
2022/12/13 03:01:42;;;;;;;9.10;8.20;;;;;;;-1.21;89.14;98198.98;85568;1283;97868;-70
2022/12/13 03:04:12;;;;;;;13.70;11.80;;;;;;;-1.22;89.22;98199.33;85795;1289;22497;-70
2022/12/13 03:06:50;;;;;;;13.20;9.80;;;;;;;-1.23;89.14;98195.55;85785;1287;98828;-70
2022/12/13 03:09:10;;;;;;;14.60;10.90;;;;;;;-1.26;89.02;98200.08;85810;1289;22491;-70
2022/12/13 03:11:15;;;;;;;11.80;10.50;;;;;;;-1.25;89.12;98202.13;85878;1285;22714;-70
2022/12/13 03:13:50;;;;;;;10.40;9.00;;;;;;;-1.26;89.15;98204.73;85632;1283;97812;-71
2022/12/13 03:15:56;;;;;;;12.30;10.80;;;;;;;-1.26;89.09;98204.55;85819;1290;22541;-70
2022/12/13 03:18:15;;;;;;;13.50;9.90;;;;;;;-1.25;89.15;98203.51;85681;1283;99129;-69
2022/12/13 03:20:23;;;;;;;10.10;8.70;;;;;;;-1.26;89.26;98199.04;85751;1283;22896;-69
2022/12/13 03:22:25;;;;;;;14.20;11.20;;;;;;;-1.29;89.11;98201.99;85802;1283;22565;-70
2022/12/13 03:24:27;;;;;;;17.10;12.80;;;;;;;-1.30;89.16;98199.78;85683;1283;98902;-70
2022/12/13 03:26:28;;;;;;;12.00;10.70;;;;;;;-1.33;89.01;98200.52;85636;1283;22676;-70
2022/12/13 03:28:30;;;;;;;13.40;10.90;;;;;;;-1.33;88.97;98203.27;85830;1283;26477;-70
2022/12/13 03:30:33;;;;;;;20.40;13.30;;;;;;;-1.33;88.99;98201.38;85671;1289;98966;-69
2022/12/13 03:32:34;;;;;;;14.60;10.50;;;;;;;-1.32;89.01;98203.79;85675;1283;22892;-69
2022/12/13 03:34:36;;;;;;;9.90;9.00;;;;;;;-1.34;89.04;98207.08;85799;1287;23562;-70
2022/12/13 03:36:38;;;;;;;9.50;8.60;;;;;;;-1.34;89.06;98208.11;85538;1283;98696;-70
2022/12/13 03:38:39;;;;;;;11.80;10.40;;;;;;;-1.33;89.16;98209.83;85767;1283;22552;-71
2022/12/13 03:40:42;;;;;;;11.30;8.90;;;;;;;-1.31;89.08;98209.81;85745;1284;24475;-70
2022/12/13 03:42:43;;;;;;;12.90;10.70;;;;;;;-1.33;89.07;98212.58;85684;1289;98390;-71
2022/12/13 03:44:45;;;;;;;13.00;11.50;;;;;;;-1.34;89.10;98212.42;85675;1290;22605;-70
2022/12/13 03:46:47;;;;;;;11.10;10.00;;;;;;;-1.34;89.04;98213.45;85684;1290;22523;-70
2022/12/13 03:48:49;;;;;;;11.80;9.80;;;;;;;-1.35;88.97;98216.23;85721;1283;99377;-69
2022/12/13 03:50:52;;;;;;;9.50;8.60;;;;;;;-1.39;88.99;98214.02;85719;1289;22481;-69
2022/12/13 03:53:02;;;;;;;10.30;9.20;;;;;;;-1.39;89.02;98214.36;85598;1290;25742;-69
2022/12/13 03:55:04;;;;;;;14.00;11.10;;;;;;;-1.42;88.93;98210.45;85770;1290;98564;-69
2022/12/13 03:57:06;;;;;;;13.40;8.90;;;;;;;-1.41;88.98;98213.89;85787;1289;22502;-71
2022/12/13 03:59:07;;;;;;;10.50;9.50;;;;;;;-1.41;88.86;98215.44;85775;1296;24451;-70
2022/12/13 04:01:15;;;;;;;10.40;9.30;;;;;;;-1.45;88.86;98216.17;85736;1290;98637;-70
2022/12/13 04:03:17;;;;;;;9.60;8.50;;;;;;;-1.46;88.94;98219.46;85722;1283;22475;-70
2022/12/13 04:05:18;;;;;;;12.30;10.10;;;;;;;-1.46;88.89;98219.80;85643;1287;25421;-70
2022/12/13 04:07:20;;;;;;;9.00;8.10;;;;;;;-1.46;88.94;98221.52;85564;1283;97781;-70
2022/12/13 04:09:22;;;;;;;10.30;8.70;;;;;;;-1.47;88.87;98224.12;85773;1289;22570;-70
2022/12/13 04:13:44;;;;;;;12.90;10.50;;;;;;;-1.45;88.92;98228.06;85861;1287;25396;-69
2022/12/13 04:15:48;;;;;;;9.80;8.70;;;;;;;-1.45;88.82;98228.74;85887;1280;22532;-70
2022/12/13 04:17:50;;;;;;;13.60;11.20;;;;;;;-1.44;88.93;98232.18;85891;1287;98820;-69
2022/12/13 04:19:52;;;;;;;11.60;9.90;;;;;;;-1.45;88.92;98233.73;85921;1287;25401;-70
2022/12/13 04:21:54;;;;;;;14.70;11.40;;;;;;;-1.43;88.85;98231.83;85832;1288;22480;-70
2022/12/13 04:23:55;;;;;;;12.60;11.00;;;;;;;-1.43;88.95;98233.90;85802;1284;99849;-71
2022/12/13 04:25:58;;;;;;;14.40;9.30;;;;;;;-1.43;88.94;98232.52;85954;1288;25015;-70
2022/12/13 04:28:00;;;;;;;18.00;11.50;;;;;;;-1.43;88.98;98232.69;85897;1288;22601;-70
2022/12/13 04:30:01;;;;;;;10.40;9.10;;;;;;;-1.43;88.91;98231.65;85842;1283;98984;-71
2022/12/13 04:32:04;;;;;;;16.00;13.50;;;;;;;-1.42;88.99;98236.98;85850;1283;23923;-69
2022/12/13 04:34:05;;;;;;;13.70;12.30;;;;;;;-1.43;88.95;98242.16;85844;1283;26515;-70
2022/12/13 04:36:07;;;;;;;12.20;11.00;;;;;;;-1.43;88.99;98240.09;85814;1290;98426;-69
2022/12/13 04:38:09;;;;;;;13.10;9.90;;;;;;;-1.42;89.04;98244.58;86002;1287;25932;-69
2022/12/13 04:40:11;;;;;;;13.60;11.20;;;;;;;-1.44;89.03;98249.06;86012;1289;22521;-70
2022/12/13 04:42:13;;;;;;;17.20;12.10;;;;;;;-1.44;88.99;98249.23;86092;1286;99065;-70
2022/12/13 04:44:15;;;;;;;23.70;14.50;;;;;;;-1.44;88.85;98246.83;86762;1299;22570;-69
2022/12/13 04:46:20;;;;;;;14.20;11.30;;;;;;;-1.44;88.95;98250.63;87700;1289;24952;-70
2022/12/13 04:48:22;;;;;;;16.60;12.30;;;;;;;-1.47;88.86;98247.38;86255;1289;99067;-69
2022/12/13 04:50:24;;;;;;;21.30;14.80;;;;;;;-1.48;88.80;98247.05;86137;1297;22637;-70
2022/12/13 04:52:26;;;;;;;18.60;14.40;;;;;;;-1.48;88.86;98244.29;86048;1283;22521;-70
2022/12/13 04:54:31;;;;;;;14.40;11.90;;;;;;;-1.45;88.94;98246.33;86244;1280;99863;-69
2022/12/13 04:56:33;;;;;;;17.40;14.00;;;;;;;-1.43;89.02;98242.86;85903;1289;25301;-69
2022/12/13 04:58:34;;;;;;;17.60;14.50;;;;;;;-1.42;89.01;98245.94;85952;1280;22600;-69
2022/12/13 05:00:36;;;;;;;24.70;18.10;;;;;;;-1.41;88.92;98250.42;85849;1283;98938;-69
2022/12/13 05:02:40;;;;;;;23.00;17.80;;;;;;;-1.43;88.84;98251.46;85859;1283;22961;-70
2022/12/13 05:04:44;;;;;;;35.30;20.50;;;;;;;-1.43;88.84;98258.02;85798;1289;22622;-69
2022/12/13 05:06:45;;;;;;;32.00;22.40;;;;;;;-1.44;88.81;98253.88;85820;1283;99159;-70
2022/12/13 05:08:47;;;;;;;32.70;20.60;;;;;;;-1.44;88.93;98254.23;85835;1280;22637;-72
2022/12/13 05:10:49;;;;;;;29.80;18.80;;;;;;;-1.45;88.88;98251.86;85612;1289;22567;-70
2022/12/13 05:12:51;;;;;;;25.40;18.40;;;;;;;-1.47;88.84;98254.09;85788;1290;100131;-69
2022/12/13 05:14:53;;;;;;;26.40;18.60;;;;;;;-1.50;88.79;98254.82;85679;1290;22544;-69
2022/12/13 05:16:54;;;;;;;27.20;20.40;;;;;;;-1.53;88.67;98253.14;85735;1290;22583;-69
2022/12/13 05:18:56;;;;;;;28.30;20.20;;;;;;;-1.57;88.63;98256.79;85598;1283;98010;-69
2022/12/13 05:21:06;;;;;;;33.60;22.60;;;;;;;-1.57;88.71;98255.23;85814;1289;22604;-69
2022/12/13 05:23:08;;;;;;;28.20;19.90;;;;;;;-1.57;88.73;98254.20;85858;1289;22634;-70
2022/12/13 05:25:10;;;;;;;34.70;21.50;;;;;;;-1.57;88.83;98258.34;85593;1299;98951;-70
2022/12/13 05:27:11;;;;;;;29.40;21.90;;;;;;;-1.58;88.68;98259.39;85783;1283;26498;-71
2022/12/13 05:29:13;;;;;;;38.00;23.50;;;;;;;-1.60;88.77;98260.61;85698;1283;24531;-71
2022/12/13 05:31:15;;;;;;;26.30;18.80;;;;;;;-1.59;88.63;98263.02;85579;1283;98850;-70
2022/12/13 05:33:17;;;;;;;29.80;21.40;;;;;;;-1.57;88.72;98263.34;85711;1289;22491;-70
2022/12/13 05:35:18;;;;;;;31.60;19.90;;;;;;;-1.57;88.76;98263.85;85662;1283;22487;-70
2022/12/13 05:37:20;;;;;;;28.40;20.30;;;;;;;-1.59;88.72;98259.58;85758;1280;99428;-70
2022/12/13 05:39:22;;;;;;;33.50;21.70;;;;;;;-1.58;88.74;98263.00;85884;1280;22500;-70
2022/12/13 05:41:28;;;;;;;35.10;23.10;;;;;;;-1.57;88.75;98261.62;85808;1286;22552;-70
2022/12/13 05:43:29;;;;;;;34.20;19.30;;;;;;;-1.59;88.74;98261.80;85644;1283;98957;-69
2022/12/13 05:45:32;;;;;;;31.90;19.60;;;;;;;-1.60;88.69;98262.52;85851;1280;22613;-70
2022/12/13 05:47:33;;;;;;;33.90;21.00;;;;;;;-1.59;88.76;98261.98;85633;1290;23344;-74
2022/12/13 05:49:35;;;;;;;34.10;19.90;;;;;;;-1.59;88.83;98263.89;85662;1286;99274;-69
2022/12/13 05:51:37;;;;;;;37.10;24.20;;;;;;;-1.59;88.87;98265.95;85785;1284;25200;-70
2022/12/13 05:53:40;;;;;;;27.80;20.60;;;;;;;-1.59;88.74;98271.98;85528;1283;100639;-70
2022/12/13 05:55:42;;;;;;;36.10;25.20;;;;;;;-1.58;88.75;98271.27;85868;1289;22480;-69
2022/12/13 05:57:44;;;;;;;33.30;23.80;;;;;;;-1.58;88.77;98271.79;85779;1283;25448;-70
2022/12/13 05:59:46;;;;;;;32.40;22.50;;;;;;;-1.57;88.73;98272.64;85576;1290;99188;-70
2022/12/13 06:01:47;;;;;;;32.20;19.60;;;;;;;-1.58;88.77;98275.59;85767;1288;22600;-70
2022/12/13 06:03:49;;;;;;;34.20;22.10;;;;;;;-1.58;88.77;98274.04;85643;1291;22905;-69
2022/12/13 06:05:51;;;;;;;29.70;20.00;;;;;;;-1.60;88.61;98276.80;85719;1283;99240;-69
2022/12/13 06:07:54;;;;;;;33.00;22.00;;;;;;;-1.60;88.82;98276.46;85786;1283;22532;-70
2022/12/13 06:09:57;;;;;;;28.10;19.70;;;;;;;-1.60;88.74;98277.16;86303;1290;22632;-69
2022/12/13 06:11:59;;;;;;;28.00;19.30;;;;;;;-1.59;88.76;98278.02;85719;1280;99228;-71
2022/12/13 06:14:01;;;;;;;27.40;19.00;;;;;;;-1.64;88.74;98268.41;85712;1290;25395;-71
2022/12/13 06:16:04;;;;;;;21.70;17.30;;;;;;;-1.61;88.79;98278.54;85684;1283;22906;-69
2022/12/13 06:18:06;;;;;;;24.40;17.50;;;;;;;-1.64;88.66;98283.73;85601;1290;99625;-71
2022/12/13 06:20:09;;;;;;;23.70;16.60;;;;;;;-1.69;88.68;98282.94;85841;1283;25284;-70
2022/12/13 06:22:11;;;;;;;27.60;18.40;;;;;;;-1.68;88.69;98289.80;85820;1288;23016;-69
2022/12/13 06:24:15;;;;;;;26.20;17.60;;;;;;;-1.68;88.62;98293.09;85567;1283;98457;-70
2022/12/13 06:26:17;;;;;;;26.90;18.50;;;;;;;-1.70;88.66;98297.05;85709;1283;22477;-70
2022/12/13 06:28:19;;;;;;;23.60;15.90;;;;;;;-1.69;88.73;98301.88;85808;1283;26710;-69
2022/12/13 06:30:21;;;;;;;31.60;20.20;;;;;;;-1.68;88.69;98300.83;85673;1283;98887;-68
2022/12/13 06:32:22;;;;;;;36.70;19.20;;;;;;;-1.67;88.74;98303.05;85720;1283;24393;-70
2022/12/13 06:34:24;;;;;;;25.40;18.00;;;;;;;-1.66;88.73;98302.88;85647;1283;23804;-71
2022/12/13 06:36:26;;;;;;;24.00;16.30;;;;;;;-1.68;88.68;98302.73;85753;1290;98963;-70
2022/12/13 06:38:28;;;;;;;30.40;17.50;;;;;;;-1.70;88.73;98309.29;85787;1283;25408;-72
2022/12/13 06:40:30;;;;;;;24.20;16.50;;;;;;;-1.69;88.68;98306.19;85812;1290;22731;-70
2022/12/13 06:42:31;;;;;;;25.60;17.00;;;;;;;-1.69;88.75;98305.84;85648;1283;100002;-70
2022/12/13 06:44:34;;;;;;;31.50;20.60;;;;;;;-1.68;88.61;98308.24;85676;1282;26631;-69
2022/12/13 06:46:36;;;;;;;18.80;14.60;;;;;;;-1.68;88.74;98310.30;85587;1285;24335;-70
2022/12/13 06:48:39;;;;;;;24.10;17.40;;;;;;;-1.66;88.67;98309.95;86034;1283;99000;-70
2022/12/13 06:50:41;;;;;;;30.30;17.60;;;;;;;-1.64;88.79;98315.95;85692;1289;24429;-70
2022/12/13 06:52:45;;;;;;;25.10;16.80;;;;;;;-1.65;88.76;98312.00;85672;1283;23337;-70
2022/12/13 06:54:46;;;;;;;27.60;18.00;;;;;;;-1.67;88.80;98314.61;85718;1286;99091;-71
2022/12/13 06:56:48;;;;;;;23.10;15.90;;;;;;;-1.67;88.75;98321.48;85682;1290;25397;-70
2022/12/13 06:58:50;;;;;;;28.60;20.00;;;;;;;-1.67;88.69;98322.52;85733;1283;22477;-69
2022/12/13 07:01:01;;;;;;;20.80;14.60;;;;;;;-1.66;88.67;98321.99;85594;1283;98796;-69
2022/12/13 07:03:02;;;;;;;25.10;16.50;;;;;;;-1.65;88.69;98324.58;85810;1283;22530;-70
2022/12/13 07:05:04;;;;;;;21.00;16.00;;;;;;;-1.68;88.61;98327.88;85934;1283;22592;-70
2022/12/13 07:07:06;;;;;;;25.80;15.70;;;;;;;-1.68;88.78;98331.48;85706;1290;98828;-70
2022/12/13 07:09:08;;;;;;;26.60;18.20;;;;;;;-1.66;88.72;98335.62;85871;1287;25341;-69
2022/12/13 07:11:14;;;;;;;25.80;17.20;;;;;;;-1.65;88.72;98339.73;85498;1293;22632;-69
2022/12/13 07:13:16;;;;;;;31.40;19.60;;;;;;;-1.79;88.61;98325.91;85672;1290;99084;-70
2022/12/13 07:15:18;;;;;;;29.20;18.40;;;;;;;-1.69;88.59;98345.27;85870;1288;25481;-68
2022/12/13 07:17:19;;;;;;;21.70;15.80;;;;;;;-1.67;88.53;98341.83;85009;1287;22614;-70
2022/12/13 07:19:21;;;;;;;25.20;16.00;;;;;;;-1.67;88.74;98348.19;84934;1283;100357;-69
2022/12/13 07:21:23;;;;;;;29.60;17.10;;;;;;;-1.69;88.62;98350.10;84899;1291;25391;-70
2022/12/13 07:23:24;;;;;;;29.20;18.70;;;;;;;-1.68;88.63;98356.30;84944;1287;22478;-68
2022/12/13 07:25:26;;;;;;;22.80;15.40;;;;;;;-1.69;88.69;98356.30;84747;1282;99125;-71
2022/12/13 07:27:28;;;;;;;27.30;17.70;;;;;;;-1.71;88.68;98356.32;85033;1283;22705;-69
2022/12/13 07:29:30;;;;;;;24.50;15.90;;;;;;;-1.71;88.62;98356.50;84781;1283;22487;-69
2022/12/13 07:31:35;;;;;;;20.30;14.20;;;;;;;-1.72;88.51;98354.08;85706;1289;98767;-70
2022/12/13 07:33:37;;;;;;;24.90;15.70;;;;;;;-1.69;88.65;98358.89;85664;1283;24832;-71
2022/12/13 07:35:39;;;;;;;27.40;18.40;;;;;;;-1.67;88.76;98358.34;85942;1290;22505;-70
2022/12/13 07:37:42;;;;;;;27.00;19.10;;;;;;;-1.70;88.67;98358.71;86221;1282;22604;-70
2022/12/13 07:39:44;;;;;;;18.60;13.80;;;;;;;-1.67;88.74;98360.42;85900;1286;22644;-70
2022/12/13 07:41:46;;;;;;;25.80;17.00;;;;;;;-1.69;88.61;98363.35;85677;1282;99075;-70
2022/12/13 07:43:48;;;;;;;25.60;17.10;;;;;;;-1.66;88.71;98365.05;85768;1290;24285;-70
2022/12/13 07:45:51;;;;;;;26.20;16.30;;;;;;;-1.64;88.69;98369.00;85824;1290;26687;-70
2022/12/13 07:47:52;;;;;;;23.80;15.90;;;;;;;-1.65;88.67;98370.55;85776;1287;99117;-70
2022/12/13 07:49:54;;;;;;;30.20;16.50;;;;;;;-1.66;88.70;98367.48;85819;1287;24261;-70
2022/12/13 07:51:56;;;;;;;22.40;15.10;;;;;;;-1.67;88.62;98370.92;85803;1289;24282;-70
2022/12/13 07:53:57;;;;;;;21.30;14.60;;;;;;;-1.68;88.70;98370.42;85842;1290;99263;-69
2022/12/13 07:56:10;;;;;;;21.60;15.20;;;;;;;-1.70;88.59;98369.92;85947;1284;23904;-69
2022/12/13 07:58:13;;;;;;;18.80;14.20;;;;;;;-1.73;88.51;98372.35;85949;1283;23406;-70
2022/12/13 08:00:17;;;;;;;22.20;15.70;;;;;;;-1.75;88.46;98369.27;85783;1283;98930;-70
2022/12/13 08:02:19;;;;;;;20.00;13.20;;;;;;;-1.79;88.40;98371.54;86011;1289;22560;-70
2022/12/13 08:04:20;;;;;;;15.20;12.50;;;;;;;-1.82;88.41;98374.33;86145;1280;22481;-71
2022/12/13 08:06:22;;;;;;;18.70;11.90;;;;;;;-1.83;88.42;98377.09;86074;1283;98849;-69
2022/12/13 08:08:24;;;;;;;16.70;11.80;;;;;;;-1.83;88.41;98376.40;86113;1287;23200;-70
2022/12/13 08:10:26;;;;;;;19.50;14.10;;;;;;;-1.81;88.38;98375.19;85955;1283;22565;-70
2022/12/13 08:12:28;;;;;;;18.50;13.40;;;;;;;-1.82;88.36;98373.98;85954;1287;98283;-69
2022/12/13 08:14:31;;;;;;;21.60;14.70;;;;;;;-1.83;88.30;98378.81;85904;1289;23407;-69
2022/12/13 08:16:34;;;;;;;21.70;16.00;;;;;;;-1.84;88.24;98375.55;85980;1288;22690;-71
2022/12/13 08:18:38;;;;;;;24.60;16.90;;;;;;;-1.80;88.39;98379.48;86022;1280;99538;-70
2022/12/13 08:20:40;;;;;;;25.10;17.10;;;;;;;-1.78;88.41;98378.77;86845;1291;23873;-70
2022/12/13 08:22:42;;;;;;;30.60;18.80;;;;;;;-1.75;88.52;98375.64;86654;1306;22531;-69
2022/12/13 08:24:44;;;;;;;23.70;15.50;;;;;;;-1.73;88.53;98377.34;85677;1290;98901;-70
2022/12/13 08:26:46;;;;;;;18.70;13.60;;;;;;;-1.71;88.57;98379.39;85963;1289;22897;-69
2022/12/13 08:28:47;;;;;;;20.20;13.90;;;;;;;-1.71;88.47;98380.09;85949;1288;24365;-70
2022/12/13 08:30:50;;;;;;;17.70;13.90;;;;;;;-1.72;88.52;98382.86;86358;1290;98846;-69
2022/12/13 08:32:52;;;;;;;23.40;15.90;;;;;;;-1.72;88.49;98383.36;85667;1294;25390;-70
2022/12/13 08:34:54;;;;;;;21.30;16.30;;;;;;;-1.72;88.59;98385.60;85471;1284;24177;-69
2022/12/13 08:36:55;;;;;;;18.90;13.10;;;;;;;-1.69;88.47;98387.64;85836;1288;98899;-68
2022/12/13 08:39:01;;;;;;;20.20;13.40;;;;;;;-1.68;88.59;98389.70;85466;1283;25230;-69
2022/12/13 08:41:04;;;;;;;17.50;13.30;;;;;;;-1.65;88.59;98391.92;85686;1306;22521;-71
2022/12/13 08:43:06;;;;;;;24.20;15.00;;;;;;;-1.65;88.56;98394.84;85818;1283;97746;-68
2022/12/13 08:45:09;;;;;;;20.10;13.60;;;;;;;-1.63;88.55;98396.04;85693;1312;26601;-69
2022/12/13 08:47:10;;;;;;;20.20;13.90;;;;;;;-1.63;88.54;98397.41;87272;1291;22606;-69
2022/12/13 08:49:12;;;;;;;18.10;13.40;;;;;;;-1.63;88.49;98392.94;87988;1287;98338;-69
2022/12/13 08:51:14;;;;;;;15.80;12.30;;;;;;;-1.61;88.55;98396.70;87701;1291;22517;-70
2022/12/13 08:53:17;;;;;;;19.20;12.80;;;;;;;-1.61;88.51;98395.15;87722;1296;22494;-70
2022/12/13 08:55:18;;;;;;;20.70;15.80;;;;;;;-1.59;88.58;98396.86;87624;1291;100018;-69
2022/12/13 08:57:20;;;;;;;17.60;12.10;;;;;;;-1.57;88.46;98397.02;86730;1286;23549;-70
2022/12/13 08:59:24;;;;;;;18.70;11.80;;;;;;;-1.56;88.54;98399.59;86604;1312;25478;-70
2022/12/13 09:01:25;;;;;;;16.60;12.90;;;;;;;-1.59;88.50;98391.01;86062;1304;98746;-72
2022/12/13 09:03:27;;;;;;;22.80;16.60;;;;;;;-1.53;88.61;98396.13;85903;1286;24284;-70
2022/12/13 09:05:29;;;;;;;16.50;14.30;;;;;;;-1.51;88.56;98399.90;85800;1289;25291;-69
2022/12/13 09:07:31;;;;;;;21.40;15.20;;;;;;;-1.48;88.57;98398.51;85914;1285;99686;-70
2022/12/13 09:09:32;;;;;;;22.40;15.80;;;;;;;-1.45;88.65;98394.67;85822;1290;22772;-70
2022/12/13 09:11:34;;;;;;;23.80;17.50;;;;;;;-1.44;88.58;98394.15;86297;1288;22500;-70
2022/12/13 09:13:37;;;;;;;27.20;16.50;;;;;;;-1.44;88.66;98393.80;85517;1284;97801;-70
2022/12/13 09:15:39;;;;;;;17.20;14.30;;;;;;;-1.45;88.63;98392.96;85628;1287;23593;-69
2022/12/13 09:17:41;;;;;;;27.30;17.60;;;;;;;-1.49;88.48;98387.30;85588;1283;25266;-70
2022/12/13 09:19:43;;;;;;;23.60;15.10;;;;;;;-1.51;88.52;98386.45;86045;1283;98980;-69
2022/12/13 09:21:44;;;;;;;21.80;15.60;;;;;;;-1.52;88.44;98388.02;85825;1290;22525;-70
2022/12/13 09:23:46;;;;;;;22.40;16.00;;;;;;;-1.55;88.37;98389.24;85301;1283;99027;-69
2022/12/13 09:25:59;;;;;;;23.00;16.10;;;;;;;-1.61;88.21;98387.23;85448;1287;23443;-70
2022/12/13 09:28:01;;;;;;;17.40;14.00;;;;;;;-1.59;88.26;98386.02;85697;1287;24264;-71
2022/12/13 09:30:05;;;;;;;27.20;18.70;;;;;;;-1.58;88.44;98388.76;85394;1290;100015;-70
2022/12/13 09:32:06;;;;;;;24.70;17.50;;;;;;;-1.55;88.60;98382.71;85441;1291;22602;-70